Machen, United Kingdom
Current Conditions -  °F | °C
As of 5:20 PM on Thursday 18 Dec 2014 (Local Time) from EGFF Reporting Station
Overcast Overcast  
Wind Chill: 52°   Ceiling: 300
Heat Index: 52°   Visibility: 4mi
Dew Point: 52°   Wind: 25mph
Humidity: 100%   Direction: 250°WSW
Pressure: 29.83"   Gusts: 37mph
Location:  51.6°N, 3.14°W
Report Text: EGFF 181720Z AUTO 25022G32KT 7000 OVC003 11/11 Q1010 RERA
Loading
Personal Weather Stations






























Interactive Weather Map New forecast layout! Learn more

10-Day Weather Forecast

Advertisements
Track Severe Weather on mobile